sensor_id;sensor_type;location;lat;lon;timestamp;temperature;humidity
24430;DHT22;12613;47.408;8.412;2023-07-29T00:00:42;19.80;92.70
24430;DHT22;12613;47.408;8.412;2023-07-29T00:03:08;19.80;92.70
24430;DHT22;12613;47.408;8.412;2023-07-29T00:05:33;19.70;92.80
24430;DHT22;12613;47.408;8.412;2023-07-29T00:07:59;19.70;92.70
24430;DHT22;12613;47.408;8.412;2023-07-29T00:10:25;19.70;92.70
24430;DHT22;12613;47.408;8.412;2023-07-29T00:12:51;19.70;92.80
24430;DHT22;12613;47.408;8.412;2023-07-29T00:15:17;19.70;92.80
24430;DHT22;12613;47.408;8.412;2023-07-29T00:17:42;19.70;92.80
24430;DHT22;12613;47.408;8.412;2023-07-29T00:20:08;19.60;92.70
24430;DHT22;12613;47.408;8.412;2023-07-29T00:22:34;19.60;92.80
24430;DHT22;12613;47.408;8.412;2023-07-29T00:24:59;19.60;92.90
24430;DHT22;12613;47.408;8.412;2023-07-29T00:27:25;19.60;92.90
24430;DHT22;12613;47.408;8.412;2023-07-29T00:29:51;19.60;92.90
24430;DHT22;12613;47.408;8.412;2023-07-29T00:32:17;19.60;92.80
24430;DHT22;12613;47.408;8.412;2023-07-29T00:34:43;19.50;92.80
24430;DHT22;12613;47.408;8.412;2023-07-29T00:37:09;19.50;92.70
24430;DHT22;12613;47.408;8.412;2023-07-29T00:39:36;19.40;92.90
24430;DHT22;12613;47.408;8.412;2023-07-29T00:42:03;19.40;93.00
24430;DHT22;12613;47.408;8.412;2023-07-29T00:44:28;19.50;93.50
24430;DHT22;12613;47.408;8.412;2023-07-29T00:46:54;19.40;93.10
24430;DHT22;12613;47.408;8.412;2023-07-29T00:49:21;19.50;93.20
24430;DHT22;12613;47.408;8.412;2023-07-29T00:51:47;19.50;93.20
24430;DHT22;12613;47.408;8.412;2023-07-29T00:54:13;19.40;93.20
24430;DHT22;12613;47.408;8.412;2023-07-29T00:56:39;19.40;93.10
24430;DHT22;12613;47.408;8.412;2023-07-29T00:59:06;19.40;93.20
24430;DHT22;12613;47.408;8.412;2023-07-29T01:01:32;19.40;93.20
24430;DHT22;12613;47.408;8.412;2023-07-29T01:03:58;19.40;93.20
24430;DHT22;12613;47.408;8.412;2023-07-29T01:06:50;19.40;93.30
24430;DHT22;12613;47.408;8.412;2023-07-29T01:10:16;19.40;93.30
24430;DHT22;12613;47.408;8.412;2023-07-29T01:14:55;19.40;93.30
24430;DHT22;12613;47.408;8.412;2023-07-29T01:17:29;19.40;93.30
24430;DHT22;12613;47.408;8.412;2023-07-29T01:20:13;19.40;93.40
24430;DHT22;12613;47.408;8.412;2023-07-29T01:22:39;19.40;93.50
24430;DHT22;12613;47.408;8.412;2023-07-29T01:25:06;19.40;93.40
24430;DHT22;12613;47.408;8.412;2023-07-29T01:27:31;19.40;93.40
24430;DHT22;12613;47.408;8.412;2023-07-29T01:29:58;19.40;93.40
24430;DHT22;12613;47.408;8.412;2023-07-29T01:38:06;19.40;93.50
24430;DHT22;12613;47.408;8.412;2023-07-29T01:40:33;19.30;93.40
24430;DHT22;12613;47.408;8.412;2023-07-29T01:42:59;19.30;93.50
24430;DHT22;12613;47.408;8.412;2023-07-29T01:45:25;19.30;93.60
24430;DHT22;12613;47.408;8.412;2023-07-29T01:47:51;19.30;93.70
24430;DHT22;12613;47.408;8.412;2023-07-29T01:50:17;19.30;93.70
24430;DHT22;12613;47.408;8.412;2023-07-29T01:52:43;19.30;93.80
24430;DHT22;12613;47.408;8.412;2023-07-29T01:55:08;19.40;93.90
24430;DHT22;12613;47.408;8.412;2023-07-29T01:57:34;19.40;93.90
24430;DHT22;12613;47.408;8.412;2023-07-29T02:00:00;19.40;93.90
24430;DHT22;12613;47.408;8.412;2023-07-29T02:02:26;19.30;93.90
24430;DHT22;12613;47.408;8.412;2023-07-29T02:04:51;19.40;94.00
24430;DHT22;12613;47.408;8.412;2023-07-29T02:07:21;19.40;94.00
24430;DHT22;12613;47.408;8.412;2023-07-29T02:09:46;19.40;94.00
24430;DHT22;12613;47.408;8.412;2023-07-29T02:12:12;19.30;94.00
24430;DHT22;12613;47.408;8.412;2023-07-29T02:14:38;19.30;94.00
24430;DHT22;12613;47.408;8.412;2023-07-29T02:17:03;19.30;94.00
24430;DHT22;12613;47.408;8.412;2023-07-29T02:19:29;19.30;94.00
24430;DHT22;12613;47.408;8.412;2023-07-29T02:21:54;19.30;94.10
24430;DHT22;12613;47.408;8.412;2023-07-29T02:24:20;19.30;94.00
24430;DHT22;12613;47.408;8.412;2023-07-29T02:26:46;19.30;94.10
24430;DHT22;12613;47.408;8.412;2023-07-29T02:29:11;19.30;94.10
24430;DHT22;12613;47.408;8.412;2023-07-29T02:31:37;19.30;94.10
24430;DHT22;12613;47.408;8.412;2023-07-29T02:34:04;19.30;94.20
24430;DHT22;12613;47.408;8.412;2023-07-29T02:36:29;19.30;94.20
24430;DHT22;12613;47.408;8.412;2023-07-29T02:38:55;19.30;94.20
24430;DHT22;12613;47.408;8.412;2023-07-29T02:41:21;19.30;94.30
24430;DHT22;12613;47.408;8.412;2023-07-29T02:43:50;19.30;94.30
24430;DHT22;12613;47.408;8.412;2023-07-29T02:46:16;19.30;94.30
24430;DHT22;12613;47.408;8.412;2023-07-29T02:48:44;19.30;94.30
24430;DHT22;12613;47.408;8.412;2023-07-29T02:51:09;19.30;94.40
24430;DHT22;12613;47.408;8.412;2023-07-29T02:53:35;19.20;94.30
24430;DHT22;12613;47.408;8.412;2023-07-29T02:56:04;19.20;94.40
24430;DHT22;12613;47.408;8.412;2023-07-29T02:58:29;19.20;94.50
24430;DHT22;12613;47.408;8.412;2023-07-29T03:01:05;19.20;94.50
24430;DHT22;12613;47.408;8.412;2023-07-29T03:03:32;19.20;94.50
24430;DHT22;12613;47.408;8.412;2023-07-29T03:06:08;19.20;94.50
24430;DHT22;12613;47.408;8.412;2023-07-29T03:08:35;19.20;94.60
24430;DHT22;12613;47.408;8.412;2023-07-29T03:11:12;19.20;94.60
24430;DHT22;12613;47.408;8.412;2023-07-29T03:13:38;19.20;94.80
24430;DHT22;12613;47.408;8.412;2023-07-29T03:18:33;19.30;94.90
24430;DHT22;12613;47.408;8.412;2023-07-29T03:20:59;19.30;94.90
24430;DHT22;12613;47.408;8.412;2023-07-29T03:23:25;19.30;94.80
24430;DHT22;12613;47.408;8.412;2023-07-29T03:25:51;19.20;94.80
24430;DHT22;12613;47.408;8.412;2023-07-29T03:28:18;19.20;94.90
24430;DHT22;12613;47.408;8.412;2023-07-29T03:30:44;19.20;95.00
24430;DHT22;12613;47.408;8.412;2023-07-29T03:33:09;19.30;95.10
24430;DHT22;12613;47.408;8.412;2023-07-29T03:35:35;19.30;95.20
24430;DHT22;12613;47.408;8.412;2023-07-29T03:38:01;19.30;95.20
24430;DHT22;12613;47.408;8.412;2023-07-29T03:40:26;19.30;95.20
24430;DHT22;12613;47.408;8.412;2023-07-29T03:42:52;19.30;95.20
24430;DHT22;12613;47.408;8.412;2023-07-29T03:45:18;19.40;95.30
24430;DHT22;12613;47.408;8.412;2023-07-29T03:47:43;19.40;95.30
24430;DHT22;12613;47.408;8.412;2023-07-29T03:50:09;19.40;95.30
24430;DHT22;12613;47.408;8.412;2023-07-29T03:52:35;19.40;95.10
24430;DHT22;12613;47.408;8.412;2023-07-29T03:55:00;19.40;95.20
24430;DHT22;12613;47.408;8.412;2023-07-29T03:57:26;19.30;95.20
24430;DHT22;12613;47.408;8.412;2023-07-29T03:59:51;19.30;95.30
24430;DHT22;12613;47.408;8.412;2023-07-29T04:02:17;19.30;95.30
24430;DHT22;12613;47.408;8.412;2023-07-29T04:04:43;19.30;95.40
24430;DHT22;12613;47.408;8.412;2023-07-29T04:07:12;19.30;95.40
24430;DHT22;12613;47.408;8.412;2023-07-29T04:09:38;19.30;95.40
24430;DHT22;12613;47.408;8.412;2023-07-29T04:12:04;19.30;95.50
24430;DHT22;12613;47.408;8.412;2023-07-29T04:14:30;19.30;95.50
24430;DHT22;12613;47.408;8.412;2023-07-29T04:16:55;19.40;95.50
24430;DHT22;12613;47.408;8.412;2023-07-29T04:19:21;19.40;95.60
24430;DHT22;12613;47.408;8.412;2023-07-29T04:21:47;19.40;95.60
24430;DHT22;12613;47.408;8.412;2023-07-29T04:24:13;19.40;95.60
24430;DHT22;12613;47.408;8.412;2023-07-29T04:26:38;19.40;95.50
24430;DHT22;12613;47.408;8.412;2023-07-29T04:29:05;19.40;95.60
24430;DHT22;12613;47.408;8.412;2023-07-29T04:31:30;19.40;95.60
24430;DHT22;12613;47.408;8.412;2023-07-29T04:33:56;19.40;95.70
24430;DHT22;12613;47.408;8.412;2023-07-29T04:36:22;19.40;95.70
24430;DHT22;12613;47.408;8.412;2023-07-29T04:38:47;19.40;95.70
24430;DHT22;12613;47.408;8.412;2023-07-29T04:41:13;19.40;95.80
24430;DHT22;12613;47.408;8.412;2023-07-29T04:43:38;19.40;95.80
24430;DHT22;12613;47.408;8.412;2023-07-29T04:46:07;19.40;95.80
24430;DHT22;12613;47.408;8.412;2023-07-29T04:48:33;19.40;95.90
24430;DHT22;12613;47.408;8.412;2023-07-29T04:50:59;19.40;95.90
24430;DHT22;12613;47.408;8.412;2023-07-29T04:53:25;19.40;95.90
24430;DHT22;12613;47.408;8.412;2023-07-29T04:55:51;19.40;96.00
24430;DHT22;12613;47.408;8.412;2023-07-29T04:58:16;19.50;96.10
24430;DHT22;12613;47.408;8.412;2023-07-29T05:00:42;19.50;96.10
24430;DHT22;12613;47.408;8.412;2023-07-29T05:03:08;19.50;96.10
24430;DHT22;12613;47.408;8.412;2023-07-29T05:05:33;19.50;96.10
24430;DHT22;12613;47.408;8.412;2023-07-29T05:07:59;19.60;96.30
24430;DHT22;12613;47.408;8.412;2023-07-29T05:10:24;19.60;96.30
24430;DHT22;12613;47.408;8.412;2023-07-29T05:12:50;19.60;96.40
24430;DHT22;12613;47.408;8.412;2023-07-29T05:15:16;19.60;96.30
24430;DHT22;12613;47.408;8.412;2023-07-29T05:17:41;19.60;96.20
24430;DHT22;12613;47.408;8.412;2023-07-29T05:20:07;19.60;96.30
24430;DHT22;12613;47.408;8.412;2023-07-29T05:22:33;19.60;96.30
24430;DHT22;12613;47.408;8.412;2023-07-29T05:24:59;19.60;96.40
24430;DHT22;12613;47.408;8.412;2023-07-29T05:27:24;19.60;96.40
24430;DHT22;12613;47.408;8.412;2023-07-29T05:29:50;19.70;96.60
24430;DHT22;12613;47.408;8.412;2023-07-29T05:32:15;19.70;96.60
24430;DHT22;12613;47.408;8.412;2023-07-29T05:34:41;19.70;96.60
24430;DHT22;12613;47.408;8.412;2023-07-29T05:37:07;19.70;96.70
24430;DHT22;12613;47.408;8.412;2023-07-29T05:39:33;19.80;96.80
24430;DHT22;12613;47.408;8.412;2023-07-29T05:41:59;19.80;96.80
24430;DHT22;12613;47.408;8.412;2023-07-29T05:44:28;19.80;96.90
24430;DHT22;12613;47.408;8.412;2023-07-29T05:46:53;19.90;97.00
24430;DHT22;12613;47.408;8.412;2023-07-29T05:49:19;19.90;97.00
24430;DHT22;12613;47.408;8.412;2023-07-29T05:51:45;19.90;96.90
24430;DHT22;12613;47.408;8.412;2023-07-29T05:54:10;20.00;97.20
24430;DHT22;12613;47.408;8.412;2023-07-29T05:56:36;20.00;97.20
24430;DHT22;12613;47.408;8.412;2023-07-29T05:59:01;20.10;97.20
24430;DHT22;12613;47.408;8.412;2023-07-29T06:01:27;20.10;97.30
24430;DHT22;12613;47.408;8.412;2023-07-29T06:03:52;20.20;97.30
24430;DHT22;12613;47.408;8.412;2023-07-29T06:06:18;20.20;97.40
24430;DHT22;12613;47.408;8.412;2023-07-29T06:08:44;20.30;97.50
24430;DHT22;12613;47.408;8.412;2023-07-29T06:11:09;20.30;97.60
24430;DHT22;12613;47.408;8.412;2023-07-29T06:13:35;20.40;97.30
24430;DHT22;12613;47.408;8.412;2023-07-29T06:16:01;20.40;97.40
24430;DHT22;12613;47.408;8.412;2023-07-29T06:18:26;20.50;97.50
24430;DHT22;12613;47.408;8.412;2023-07-29T06:20:52;20.50;97.50
24430;DHT22;12613;47.408;8.412;2023-07-29T06:23:18;20.60;97.50
24430;DHT22;12613;47.408;8.412;2023-07-29T06:25:43;20.60;97.50
24430;DHT22;12613;47.408;8.412;2023-07-29T06:28:09;20.70;97.60
24430;DHT22;12613;47.408;8.412;2023-07-29T06:30:35;20.80;97.60
24430;DHT22;12613;47.408;8.412;2023-07-29T06:33:01;20.80;97.70
24430;DHT22;12613;47.408;8.412;2023-07-29T06:35:28;20.90;97.70
24430;DHT22;12613;47.408;8.412;2023-07-29T06:37:54;20.90;97.70
24430;DHT22;12613;47.408;8.412;2023-07-29T06:40:20;21.00;97.70
24430;DHT22;12613;47.408;8.412;2023-07-29T06:42:45;21.00;97.70
24430;DHT22;12613;47.408;8.412;2023-07-29T06:45:11;21.10;98.00
24430;DHT22;12613;47.408;8.412;2023-07-29T06:47:37;21.20;97.50
24430;DHT22;12613;47.408;8.412;2023-07-29T06:50:03;21.30;97.40
24430;DHT22;12613;47.408;8.412;2023-07-29T06:52:28;21.30;97.60
24430;DHT22;12613;47.408;8.412;2023-07-29T06:54:54;21.40;97.90
24430;DHT22;12613;47.408;8.412;2023-07-29T06:57:20;21.50;97.80
24430;DHT22;12613;47.408;8.412;2023-07-29T06:59:45;21.50;97.80
24430;DHT22;12613;47.408;8.412;2023-07-29T07:02:11;21.60;97.80
24430;DHT22;12613;47.408;8.412;2023-07-29T07:04:37;21.70;97.70
24430;DHT22;12613;47.408;8.412;2023-07-29T07:07:02;21.70;97.50
24430;DHT22;12613;47.408;8.412;2023-07-29T07:09:28;21.70;97.50
24430;DHT22;12613;47.408;8.412;2023-07-29T07:11:54;21.80;97.60
24430;DHT22;12613;47.408;8.412;2023-07-29T07:14:19;21.90;97.60
24430;DHT22;12613;47.408;8.412;2023-07-29T07:16:45;22.00;97.60
24430;DHT22;12613;47.408;8.412;2023-07-29T07:19:11;22.00;97.30
24430;DHT22;12613;47.408;8.412;2023-07-29T07:21:36;22.10;97.40
24430;DHT22;12613;47.408;8.412;2023-07-29T07:24:02;22.10;97.50
24430;DHT22;12613;47.408;8.412;2023-07-29T07:26:28;22.30;97.60
24430;DHT22;12613;47.408;8.412;2023-07-29T07:28:53;22.30;97.30
24430;DHT22;12613;47.408;8.412;2023-07-29T07:31:19;22.40;97.10
24430;DHT22;12613;47.408;8.412;2023-07-29T07:33:45;22.40;97.10
24430;DHT22;12613;47.408;8.412;2023-07-29T07:36:10;22.50;96.90
24430;DHT22;12613;47.408;8.412;2023-07-29T07:38:36;22.60;96.70
24430;DHT22;12613;47.408;8.412;2023-07-29T07:41:02;22.60;96.60
24430;DHT22;12613;47.408;8.412;2023-07-29T07:43:28;22.60;96.20
24430;DHT22;12613;47.408;8.412;2023-07-29T07:46:00;22.70;96.30
24430;DHT22;12613;47.408;8.412;2023-07-29T07:48:27;22.80;96.20
24430;DHT22;12613;47.408;8.412;2023-07-29T07:50:53;22.80;95.30
24430;DHT22;12613;47.408;8.412;2023-07-29T07:53:18;22.90;95.80
24430;DHT22;12613;47.408;8.412;2023-07-29T07:55:45;22.90;95.70
24430;DHT22;12613;47.408;8.412;2023-07-29T07:58:11;23.00;95.30
24430;DHT22;12613;47.408;8.412;2023-07-29T08:00:37;23.10;95.10
24430;DHT22;12613;47.408;8.412;2023-07-29T08:03:02;23.10;95.20
24430;DHT22;12613;47.408;8.412;2023-07-29T08:05:28;23.20;95.20
24430;DHT22;12613;47.408;8.412;2023-07-29T08:07:54;23.30;95.30
24430;DHT22;12613;47.408;8.412;2023-07-29T08:10:20;23.40;95.00
24430;DHT22;12613;47.408;8.412;2023-07-29T08:12:46;23.40;94.80
24430;DHT22;12613;47.408;8.412;2023-07-29T08:15:11;23.40;94.70
24430;DHT22;12613;47.408;8.412;2023-07-29T08:17:37;23.40;94.20
24430;DHT22;12613;47.408;8.412;2023-07-29T08:20:03;23.30;94.10
24430;DHT22;12613;47.408;8.412;2023-07-29T08:22:29;23.40;94.40
24430;DHT22;12613;47.408;8.412;2023-07-29T08:24:54;23.50;94.60
24430;DHT22;12613;47.408;8.412;2023-07-29T08:27:20;23.60;94.70
24430;DHT22;12613;47.408;8.412;2023-07-29T08:29:45;23.70;94.40
24430;DHT22;12613;47.408;8.412;2023-07-29T08:32:11;23.70;94.20
24430;DHT22;12613;47.408;8.412;2023-07-29T08:34:37;23.80;93.90
24430;DHT22;12613;47.408;8.412;2023-07-29T08:37:02;23.80;93.50
24430;DHT22;12613;47.408;8.412;2023-07-29T08:39:28;23.80;93.50
24430;DHT22;12613;47.408;8.412;2023-07-29T08:42:06;23.80;93.10
24430;DHT22;12613;47.408;8.412;2023-07-29T08:44:42;23.80;92.70
24430;DHT22;12613;47.408;8.412;2023-07-29T08:47:08;23.80;92.30
24430;DHT22;12613;47.408;8.412;2023-07-29T08:49:34;23.80;92.10
24430;DHT22;12613;47.408;8.412;2023-07-29T08:52:01;23.80;91.80
24430;DHT22;12613;47.408;8.412;2023-07-29T08:54:26;23.80;91.20
24430;DHT22;12613;47.408;8.412;2023-07-29T08:56:52;23.90;91.90
24430;DHT22;12613;47.408;8.412;2023-07-29T08:59:19;24.00;92.10
24430;DHT22;12613;47.408;8.412;2023-07-29T09:01:45;24.10;90.90
24430;DHT22;12613;47.408;8.412;2023-07-29T09:04:11;24.10;90.90
24430;DHT22;12613;47.408;8.412;2023-07-29T09:06:37;24.10;90.60
24430;DHT22;12613;47.408;8.412;2023-07-29T09:09:04;24.10;90.20
24430;DHT22;12613;47.408;8.412;2023-07-29T09:11:31;24.10;90.50
24430;DHT22;12613;47.408;8.412;2023-07-29T09:13:58;24.20;90.50
24430;DHT22;12613;47.408;8.412;2023-07-29T09:16:24;24.30;90.90
24430;DHT22;12613;47.408;8.412;2023-07-29T09:18:50;24.50;89.90
24430;DHT22;12613;47.408;8.412;2023-07-29T09:21:24;24.50;90.00
24430;DHT22;12613;47.408;8.412;2023-07-29T09:23:50;24.60;89.70
24430;DHT22;12613;47.408;8.412;2023-07-29T09:26:26;24.60;89.50
24430;DHT22;12613;47.408;8.412;2023-07-29T09:28:54;24.70;90.00
24430;DHT22;12613;47.408;8.412;2023-07-29T09:31:25;24.80;89.80
24430;DHT22;12613;47.408;8.412;2023-07-29T09:34:04;24.80;88.30
24430;DHT22;12613;47.408;8.412;2023-07-29T09:36:33;24.90;89.60
24430;DHT22;12613;47.408;8.412;2023-07-29T09:39:00;25.00;89.70
24430;DHT22;12613;47.408;8.412;2023-07-29T09:41:29;25.20;89.00
24430;DHT22;12613;47.408;8.412;2023-07-29T09:44:02;25.20;89.00
24430;DHT22;12613;47.408;8.412;2023-07-29T09:46:36;25.30;88.50
24430;DHT22;12613;47.408;8.412;2023-07-29T09:49:03;25.40;88.70
24430;DHT22;12613;47.408;8.412;2023-07-29T09:51:29;25.50;88.60
24430;DHT22;12613;47.408;8.412;2023-07-29T09:53:55;25.50;86.90
24430;DHT22;12613;47.408;8.412;2023-07-29T09:56:26;25.50;86.80
24430;DHT22;12613;47.408;8.412;2023-07-29T09:58:57;25.50;87.30
24430;DHT22;12613;47.408;8.412;2023-07-29T10:01:24;25.50;86.30
24430;DHT22;12613;47.408;8.412;2023-07-29T10:03:50;25.50;85.80
24430;DHT22;12613;47.408;8.412;2023-07-29T10:06:16;25.60;86.80
24430;DHT22;12613;47.408;8.412;2023-07-29T10:08:43;25.60;85.90
24430;DHT22;12613;47.408;8.412;2023-07-29T10:11:10;25.70;86.50
24430;DHT22;12613;47.408;8.412;2023-07-29T10:13:37;25.80;86.50
24430;DHT22;12613;47.408;8.412;2023-07-29T10:16:04;25.90;85.40
24430;DHT22;12613;47.408;8.412;2023-07-29T10:18:31;25.90;85.40
24430;DHT22;12613;47.408;8.412;2023-07-29T10:20:58;25.90;85.30
24430;DHT22;12613;47.408;8.412;2023-07-29T10:23:25;25.90;84.70
24430;DHT22;12613;47.408;8.412;2023-07-29T10:26:06;25.90;85.00
24430;DHT22;12613;47.408;8.412;2023-07-29T10:28:33;26.00;84.60
24430;DHT22;12613;47.408;8.412;2023-07-29T10:31:00;26.00;84.30
24430;DHT22;12613;47.408;8.412;2023-07-29T10:33:28;26.10;84.50
24430;DHT22;12613;47.408;8.412;2023-07-29T10:35:55;26.20;85.00
24430;DHT22;12613;47.408;8.412;2023-07-29T10:38:22;26.30;84.50
24430;DHT22;12613;47.408;8.412;2023-07-29T10:40:54;26.30;82.60
24430;DHT22;12613;47.408;8.412;2023-07-29T10:45:50;26.30;83.30
24430;DHT22;12613;47.408;8.412;2023-07-29T10:48:43;26.40;83.30
24430;DHT22;12613;47.408;8.412;2023-07-29T10:51:35;26.50;83.40
24430;DHT22;12613;47.408;8.412;2023-07-29T10:54:03;26.40;82.20
24430;DHT22;12613;47.408;8.412;2023-07-29T10:56:34;26.40;81.30
24430;DHT22;12613;47.408;8.412;2023-07-29T10:59:52;26.40;81.60
24430;DHT22;12613;47.408;8.412;2023-07-29T11:01:58;26.30;80.80
24430;DHT22;12613;47.408;8.412;2023-07-29T11:04:28;26.20;79.80
24430;DHT22;12613;47.408;8.412;2023-07-29T11:07:19;26.10;79.90
24430;DHT22;12613;47.408;8.412;2023-07-29T11:12:46;26.00;79.40
24430;DHT22;12613;47.408;8.412;2023-07-29T11:15:35;25.80;80.00
24430;DHT22;12613;47.408;8.412;2023-07-29T11:18:02;25.80;79.30
24430;DHT22;12613;47.408;8.412;2023-07-29T11:20:29;25.70;78.90
24430;DHT22;12613;47.408;8.412;2023-07-29T11:22:57;25.50;80.00
24430;DHT22;12613;47.408;8.412;2023-07-29T11:25:24;25.40;80.30
24430;DHT22;12613;47.408;8.412;2023-07-29T11:27:55;25.40;80.60
24430;DHT22;12613;47.408;8.412;2023-07-29T11:30:21;25.20;81.50
24430;DHT22;12613;47.408;8.412;2023-07-29T11:32:55;24.90;81.70
24430;DHT22;12613;47.408;8.412;2023-07-29T11:35:21;24.80;83.10
24430;DHT22;12613;47.408;8.412;2023-07-29T11:37:48;24.70;82.40
24430;DHT22;12613;47.408;8.412;2023-07-29T11:40:16;24.50;83.20
24430;DHT22;12613;47.408;8.412;2023-07-29T11:42:42;24.40;84.30
24430;DHT22;12613;47.408;8.412;2023-07-29T11:45:08;24.40;85.50
24430;DHT22;12613;47.408;8.412;2023-07-29T11:47:35;24.50;85.70
24430;DHT22;12613;47.408;8.412;2023-07-29T11:50:09;24.50;86.50
24430;DHT22;12613;47.408;8.412;2023-07-29T11:52:39;24.60;86.30
24430;DHT22;12613;47.408;8.412;2023-07-29T11:55:06;24.60;86.00
24430;DHT22;12613;47.408;8.412;2023-07-29T11:57:36;24.60;86.00
24430;DHT22;12613;47.408;8.412;2023-07-29T12:00:07;24.60;86.60
24430;DHT22;12613;47.408;8.412;2023-07-29T12:02:37;24.70;86.90
24430;DHT22;12613;47.408;8.412;2023-07-29T12:05:04;24.70;87.00
24430;DHT22;12613;47.408;8.412;2023-07-29T12:07:31;24.70;86.70
24430;DHT22;12613;47.408;8.412;2023-07-29T12:09:57;24.60;85.90
24430;DHT22;12613;47.408;8.412;2023-07-29T12:12:23;24.60;86.40
24430;DHT22;12613;47.408;8.412;2023-07-29T12:14:49;24.60;87.10
24430;DHT22;12613;47.408;8.412;2023-07-29T12:17:15;24.50;87.70
24430;DHT22;12613;47.408;8.412;2023-07-29T12:19:41;24.50;88.10
24430;DHT22;12613;47.408;8.412;2023-07-29T12:22:09;24.40;88.10
24430;DHT22;12613;47.408;8.412;2023-07-29T12:24:40;24.40;88.30
24430;DHT22;12613;47.408;8.412;2023-07-29T12:27:14;24.40;88.50
24430;DHT22;12613;47.408;8.412;2023-07-29T12:29:44;24.30;88.60
24430;DHT22;12613;47.408;8.412;2023-07-29T12:32:11;24.40;89.20
24430;DHT22;12613;47.408;8.412;2023-07-29T12:34:38;24.30;89.20
24430;DHT22;12613;47.408;8.412;2023-07-29T12:37:07;24.30;89.20
24430;DHT22;12613;47.408;8.412;2023-07-29T12:39:34;24.20;89.50
24430;DHT22;12613;47.408;8.412;2023-07-29T12:42:01;24.10;88.90
24430;DHT22;12613;47.408;8.412;2023-07-29T12:44:31;23.90;89.30
24430;DHT22;12613;47.408;8.412;2023-07-29T12:46:56;23.50;87.10
24430;DHT22;12613;47.408;8.412;2023-07-29T12:49:22;23.10;87.40
24430;DHT22;12613;47.408;8.412;2023-07-29T12:51:48;22.90;88.60
24430;DHT22;12613;47.408;8.412;2023-07-29T12:54:14;22.70;89.20
24430;DHT22;12613;47.408;8.412;2023-07-29T12:56:40;22.60;89.30
24430;DHT22;12613;47.408;8.412;2023-07-29T12:59:05;22.40;89.70
24430;DHT22;12613;47.408;8.412;2023-07-29T13:01:31;22.30;90.00
24430;DHT22;12613;47.408;8.412;2023-07-29T13:03:57;22.30;90.20
24430;DHT22;12613;47.408;8.412;2023-07-29T13:06:23;22.10;90.20
24430;DHT22;12613;47.408;8.412;2023-07-29T13:08:48;22.10;90.50
24430;DHT22;12613;47.408;8.412;2023-07-29T13:11:15;22.10;90.70
24430;DHT22;12613;47.408;8.412;2023-07-29T13:13:41;22.10;90.80
24430;DHT22;12613;47.408;8.412;2023-07-29T13:16:06;22.00;90.80
24430;DHT22;12613;47.408;8.412;2023-07-29T13:18:33;22.00;90.90
24430;DHT22;12613;47.408;8.412;2023-07-29T13:20:59;21.90;91.20
24430;DHT22;12613;47.408;8.412;2023-07-29T13:23:26;21.90;91.50
24430;DHT22;12613;47.408;8.412;2023-07-29T13:25:52;21.90;91.60
24430;DHT22;12613;47.408;8.412;2023-07-29T13:28:17;21.90;91.60
24430;DHT22;12613;47.408;8.412;2023-07-29T13:30:44;21.90;91.70
24430;DHT22;12613;47.408;8.412;2023-07-29T13:33:10;21.90;91.60
24430;DHT22;12613;47.408;8.412;2023-07-29T13:35:36;21.80;91.80
24430;DHT22;12613;47.408;8.412;2023-07-29T13:38:01;21.80;91.80
24430;DHT22;12613;47.408;8.412;2023-07-29T13:40:27;21.80;92.00
24430;DHT22;12613;47.408;8.412;2023-07-29T13:42:54;21.80;92.20
24430;DHT22;12613;47.408;8.412;2023-07-29T13:45:20;21.80;92.30
24430;DHT22;12613;47.408;8.412;2023-07-29T13:47:45;21.80;92.30
24430;DHT22;12613;47.408;8.412;2023-07-29T13:50:11;21.80;92.30
24430;DHT22;12613;47.408;8.412;2023-07-29T13:52:38;21.80;92.60
24430;DHT22;12613;47.408;8.412;2023-07-29T13:55:04;21.80;92.60
24430;DHT22;12613;47.408;8.412;2023-07-29T13:57:30;21.80;92.80
24430;DHT22;12613;47.408;8.412;2023-07-29T13:59:56;21.90;93.00
24430;DHT22;12613;47.408;8.412;2023-07-29T14:02:22;21.90;93.00
24430;DHT22;12613;47.408;8.412;2023-07-29T14:04:47;21.90;93.00
24430;DHT22;12613;47.408;8.412;2023-07-29T14:07:13;21.90;93.00
24430;DHT22;12613;47.408;8.412;2023-07-29T14:09:39;22.00;93.10
24430;DHT22;12613;47.408;8.412;2023-07-29T14:12:05;21.90;92.70
24430;DHT22;12613;47.408;8.412;2023-07-29T14:14:31;21.80;92.70
24430;DHT22;12613;47.408;8.412;2023-07-29T14:16:57;21.70;92.60
24430;DHT22;12613;47.408;8.412;2023-07-29T14:19:23;21.60;92.90
24430;DHT22;12613;47.408;8.412;2023-07-29T14:21:49;21.60;93.10
24430;DHT22;12613;47.408;8.412;2023-07-29T14:24:14;21.50;92.80
24430;DHT22;12613;47.408;8.412;2023-07-29T14:26:41;21.50;93.20
24430;DHT22;12613;47.408;8.412;2023-07-29T14:29:07;21.50;93.00
24430;DHT22;12613;47.408;8.412;2023-07-29T14:31:32;21.40;92.90
24430;DHT22;12613;47.408;8.412;2023-07-29T14:33:58;21.30;93.10
24430;DHT22;12613;47.408;8.412;2023-07-29T14:36:25;21.30;93.30
24430;DHT22;12613;47.408;8.412;2023-07-29T14:38:50;21.20;93.30
24430;DHT22;12613;47.408;8.412;2023-07-29T14:41:16;21.20;93.40
24430;DHT22;12613;47.408;8.412;2023-07-29T14:43:42;21.30;93.70
24430;DHT22;12613;47.408;8.412;2023-07-29T14:46:07;21.20;93.40
24430;DHT22;12613;47.408;8.412;2023-07-29T14:48:33;21.20;93.40
24430;DHT22;12613;47.408;8.412;2023-07-29T14:50:58;21.20;93.60
24430;DHT22;12613;47.408;8.412;2023-07-29T14:53:24;21.20;93.60
24430;DHT22;12613;47.408;8.412;2023-07-29T14:55:50;21.20;93.80
24430;DHT22;12613;47.408;8.412;2023-07-29T14:58:16;21.20;93.70
24430;DHT22;12613;47.408;8.412;2023-07-29T15:00:42;21.20;93.90
24430;DHT22;12613;47.408;8.412;2023-07-29T15:03:08;21.30;93.80
24430;DHT22;12613;47.408;8.412;2023-07-29T15:05:33;21.30;93.80
24430;DHT22;12613;47.408;8.412;2023-07-29T15:07:59;21.30;93.90
24430;DHT22;12613;47.408;8.412;2023-07-29T15:10:25;21.30;93.80
24430;DHT22;12613;47.408;8.412;2023-07-29T15:12:51;21.30;93.80
24430;DHT22;12613;47.408;8.412;2023-07-29T15:15:17;21.40;93.60
24430;DHT22;12613;47.408;8.412;2023-07-29T15:17:43;21.40;93.70
24430;DHT22;12613;47.408;8.412;2023-07-29T15:20:09;21.40;93.70
24430;DHT22;12613;47.408;8.412;2023-07-29T15:22:35;21.40;93.60
24430;DHT22;12613;47.408;8.412;2023-07-29T15:25:00;21.50;93.50
24430;DHT22;12613;47.408;8.412;2023-07-29T15:27:27;21.50;93.10
24430;DHT22;12613;47.408;8.412;2023-07-29T15:29:53;21.60;93.00
24430;DHT22;12613;47.408;8.412;2023-07-29T15:32:19;21.60;93.00
24430;DHT22;12613;47.408;8.412;2023-07-29T15:34:45;21.60;92.90
24430;DHT22;12613;47.408;8.412;2023-07-29T15:37:10;21.70;92.90
24430;DHT22;12613;47.408;8.412;2023-07-29T15:39:36;21.70;92.60
24430;DHT22;12613;47.408;8.412;2023-07-29T15:42:02;21.70;92.70
24430;DHT22;12613;47.408;8.412;2023-07-29T15:44:27;21.70;92.60